Time;durP1;ratioP1;P1;durP2;ratioP2;P2;SDS_P1;SDS_P2;PMS_P1;PMS_P2;Temp;Humidity;BMP_temperature;BMP_pressure;BME280_temperature;BME280_humidity;BME280_pressure;Samples;Min_cycle;Max_cycle;Signal;HPM_P1;HPM_P2
2023/03/27 00:00:46;;;;;;;7.90;1.52;;;4.80;99.90;;;;;;6308106;22;20019;-90
2023/03/27 00:03:14;;;;;;;7.78;1.45;;;4.70;99.90;;;;;;6307592;22;20014;-90
2023/03/27 00:05:40;;;;;;;7.00;1.40;;;4.80;99.90;;;;;;6308347;22;20331;-89
2023/03/27 00:08:10;;;;;;;6.78;1.20;;;4.70;99.90;;;;;;6280674;22;20015;-90
2023/03/27 00:10:37;;;;;;;5.18;1.10;;;4.70;99.90;;;;;;6307663;22;20019;-90
2023/03/27 00:13:04;;;;;;;9.63;1.50;;;4.70;99.90;;;;;;6308233;22;20047;-91
2023/03/27 00:15:32;;;;;;;9.70;1.27;;;4.70;99.90;;;;;;6280549;22;20015;-91
2023/03/27 00:18:02;;;;;;;7.80;1.25;;;4.70;99.90;;;;;;6307928;22;20439;-90
2023/03/27 00:20:29;;;;;;;5.63;1.20;;;4.70;99.90;;;;;;6280719;22;20095;-91
2023/03/27 00:22:55;;;;;;;6.25;1.25;;;4.70;99.90;;;;;;6280632;22;20015;-91
2023/03/27 00:25:23;;;;;;;6.47;1.17;;;4.70;99.90;;;;;;6280315;22;20110;-90
2023/03/27 00:27:49;;;;;;;8.27;1.77;;;4.70;99.90;;;;;;6281138;22;20069;-90
2023/03/27 00:30:16;;;;;;;8.88;1.40;;;4.70;99.90;;;;;;6280421;22;20106;-90
2023/03/27 00:32:42;;;;;;;7.93;1.50;;;4.70;99.90;;;;;;6307907;22;20323;-88
2023/03/27 00:35:08;;;;;;;5.70;1.30;;;4.60;99.90;;;;;;6281646;22;20015;-90
2023/03/27 00:37:35;;;;;;;10.43;1.45;;;4.60;99.90;;;;;;6282227;22;20137;-90
2023/03/27 00:40:01;;;;;;;5.28;1.10;;;4.60;99.90;;;;;;6282317;22;20332;-89
2023/03/27 00:42:27;;;;;;;6.95;1.20;;;4.50;99.90;;;;;;6309743;22;20082;-89
2023/03/27 00:44:53;;;;;;;5.90;1.40;;;4.50;99.90;;;;;;6281696;22;20120;-88
2023/03/27 00:47:32;;;;;;;6.97;1.27;;;4.50;99.90;;;;;;6281717;22;20019;-90
2023/03/27 00:50:00;;;;;;;44.92;2.60;;;4.50;99.90;;;;;;6281857;22;20023;-90
2023/03/27 00:52:28;;;;;;;8.82;1.50;;;4.40;99.90;;;;;;6308968;22;20019;-89
2023/03/27 00:54:57;;;;;;;6.15;1.40;;;4.40;99.90;;;;;;6310097;22;20086;-89
2023/03/27 00:57:24;;;;;;;4.57;1.20;;;4.40;99.90;;;;;;6309348;22;20327;-89
2023/03/27 00:59:52;;;;;;;8.70;1.42;;;4.40;99.90;;;;;;6281361;22;20016;-89
2023/03/27 01:02:19;;;;;;;5.47;1.05;;;4.30;99.90;;;;;;6282049;22;20018;-89
2023/03/27 01:04:45;;;;;;;4.60;1.13;;;4.30;99.90;;;;;;6309735;22;20015;-90
2023/03/27 01:07:11;;;;;;;7.25;1.50;;;4.30;99.90;;;;;;6281645;22;20011;-89
2023/03/27 01:09:37;;;;;;;5.07;1.30;;;4.30;99.90;;;;;;6281735;22;20027;-90
2023/03/27 01:12:21;;;;;;;6.50;1.25;;;4.20;99.90;;;;;;6309440;22;20012;-90
2023/03/27 01:14:53;;;;;;;;;;;4.20;99.90;;;;;;6309759;22;20022;-88
2023/03/27 01:17:37;;;;;;;5.85;1.20;;;4.10;99.90;;;;;;6281711;22;19929;-89
2023/03/27 01:20:32;;;;;;;4.00;1.00;;;4.10;99.90;;;;;;6281258;22;20019;-89
2023/03/27 01:23:28;;;;;;;6.35;0.90;;;4.10;99.90;;;;;;6281604;22;20516;-89
2023/03/27 01:26:09;;;;;;;6.95;1.35;;;4.10;99.90;;;;;;6309684;22;20019;-89
2023/03/27 01:28:42;;;;;;;5.82;1.20;;;4.10;99.90;;;;;;6308514;22;20016;-90
2023/03/27 01:31:29;;;;;;;8.45;1.30;;;4.10;99.90;;;;;;6309177;22;20019;-89
2023/03/27 01:34:27;;;;;;;5.95;1.30;;;4.00;99.90;;;;;;6281278;22;20011;-89
2023/03/27 01:37:12;;;;;;;6.10;1.38;;;4.00;99.90;;;;;;6282154;22;20019;-88
2023/03/27 01:39:45;;;;;;;6.55;1.00;;;4.00;99.90;;;;;;6281193;22;20047;-90
2023/03/27 01:42:45;;;;;;;5.40;1.08;;;3.90;99.90;;;;;;6280772;22;20462;-89
2023/03/27 01:45:30;;;;;;;5.25;1.00;;;3.90;99.90;;;;;;6280739;22;20019;-89
2023/03/27 01:48:16;;;;;;;5.03;1.00;;;3.90;99.90;;;;;;6281329;22;20072;-90
2023/03/27 01:50:51;;;;;;;7.32;1.10;;;3.90;99.90;;;;;;6281574;22;20019;-89
2023/03/27 01:53:41;;;;;;;6.45;1.55;;;3.80;99.90;;;;;;6281034;22;20023;-89
2023/03/27 01:56:17;;;;;;;7.15;1.20;;;3.80;99.90;;;;;;6308342;22;20478;-89
2023/03/27 01:58:46;;;;;;;4.15;1.00;;;3.80;99.90;;;;;;6281748;22;20090;-89
2023/03/27 02:01:16;;;;;;;7.03;1.30;;;3.80;99.90;;;;;;6281173;22;20026;-88
2023/03/27 02:03:50;;;;;;;4.95;1.35;;;3.80;99.90;;;;;;6281220;22;20042;-89
2023/03/27 02:06:24;;;;;;;4.85;1.02;;;3.80;99.90;;;;;;6308386;22;20455;-89
2023/03/27 02:08:55;;;;;;;;;;;3.70;99.90;;;;;;6281448;22;20022;-88
2023/03/27 02:11:27;;;;;;;9.35;1.08;;;3.70;99.90;;;;;;6281432;22;20220;-90
2023/03/27 02:13:58;;;;;;;3.88;1.02;;;3.70;99.90;;;;;;6309137;22;20047;-89
2023/03/27 02:16:32;;;;;;;8.40;1.20;;;3.70;99.90;;;;;;6280146;22;20016;-88
2023/03/27 02:19:03;;;;;;;6.75;1.13;;;3.70;99.90;;;;;;6281400;22;20015;-88
2023/03/27 02:21:32;;;;;;;5.60;1.20;;;3.60;99.90;;;;;;6308013;22;20022;-89
2023/03/27 02:24:00;;;;;;;6.35;1.30;;;3.60;99.90;;;;;;6280779;22;20015;-90
2023/03/27 02:26:30;;;;;;;9.10;1.02;;;3.60;99.90;;;;;;6280129;22;20118;-89
2023/03/27 02:29:04;;;;;;;9.23;1.20;;;3.60;99.90;;;;;;6308973;22;20022;-89
2023/03/27 02:31:43;;;;;;;7.18;1.00;;;3.60;99.90;;;;;;6279948;22;20019;-89
2023/03/27 02:34:27;;;;;;;8.23;1.10;;;3.60;99.90;;;;;;6308849;22;20019;-89
2023/03/27 02:37:05;;;;;;;5.35;1.10;;;3.60;99.90;;;;;;6308108;22;20401;-90
2023/03/27 02:39:59;;;;;;;4.47;1.02;;;3.60;99.90;;;;;;6279613;22;20451;-90
2023/03/27 02:43:05;;;;;;;6.30;1.05;;;3.60;99.90;;;;;;6308040;22;20019;-89
2023/03/27 02:45:44;;;;;;;8.27;1.20;;;3.60;99.90;;;;;;6306848;22;20023;-89
2023/03/27 02:48:32;;;;;;;6.38;1.15;;;3.50;99.90;;;;;;6280500;22;20474;-89
2023/03/27 02:51:05;;;;;;;6.10;0.93;;;3.50;99.90;;;;;;6308398;22;20346;-90
2023/03/27 02:53:37;;;;;;;6.57;1.10;;;3.50;99.90;;;;;;6280818;22;20086;-90
2023/03/27 02:56:06;;;;;;;5.55;1.15;;;3.50;99.90;;;;;;6281129;22;20086;-90
2023/03/27 02:58:41;;;;;;;8.35;1.30;;;3.50;99.90;;;;;;6307299;22;20098;-90
2023/03/27 03:01:08;;;;;;;5.65;1.20;;;3.50;99.90;;;;;;6309266;22;20057;-92
2023/03/27 03:03:52;;;;;;;7.43;0.98;;;3.50;99.90;;;;;;6280697;22;20015;-91
2023/03/27 03:06:28;;;;;;;;;;;3.50;99.90;;;;;;6280879;22;20040;-89
2023/03/27 03:09:01;;;;;;;6.55;1.08;;;3.50;99.90;;;;;;6309094;22;19915;-91
2023/03/27 03:11:28;;;;;;;8.35;1.35;;;3.50;99.90;;;;;;6280696;22;20030;-89
2023/03/27 03:13:54;;;;;;;5.45;0.90;;;3.50;99.90;;;;;;6280652;22;20371;-90
2023/03/27 03:16:20;;;;;;;6.68;1.20;;;3.50;99.90;;;;;;6308369;22;20015;-90
2023/03/27 03:18:46;;;;;;;5.20;1.00;;;3.50;99.90;;;;;;6280490;22;20033;-91
2023/03/27 03:21:11;;;;;;;6.13;1.08;;;3.50;99.90;;;;;;6308047;22;20043;-91
2023/03/27 03:23:37;;;;;;;5.55;1.10;;;3.50;99.90;;;;;;6307987;22;20473;-90
2023/03/27 03:26:05;;;;;;;3.70;0.90;;;3.50;99.90;;;;;;6308550;22;20019;-91
2023/03/27 03:28:33;;;;;;;5.55;1.00;;;3.50;99.90;;;;;;6280175;22;20011;-90
2023/03/27 03:31:01;;;;;;;5.63;1.05;;;3.50;99.90;;;;;;6280632;22;20019;-90
2023/03/27 03:33:28;;;;;;;5.35;1.10;;;3.50;99.90;;;;;;6279396;22;20014;-89
2023/03/27 03:35:59;;;;;;;6.47;1.13;;;3.50;99.90;;;;;;6281524;22;20011;-88
2023/03/27 03:38:26;;;;;;;7.65;1.40;;;3.40;99.90;;;;;;6307593;22;20094;-93
2023/03/27 03:40:57;;;;;;;6.20;1.15;;;3.50;99.90;;;;;;6307615;22;20451;-88
2023/03/27 03:43:25;;;;;;;8.32;1.10;;;3.40;99.90;;;;;;6303494;22;20020;-90
2023/03/27 03:45:51;;;;;;;8.40;1.27;;;3.40;99.90;;;;;;6277254;22;20031;-92
2023/03/27 03:48:18;;;;;;;6.20;1.17;;;3.40;99.90;;;;;;6249727;22;20351;-91
2023/03/27 03:50:45;;;;;;;8.02;1.20;;;3.30;99.90;;;;;;6277581;22;20050;-91
2023/03/27 03:53:12;;;;;;;9.40;1.33;;;3.40;99.90;;;;;;6249538;22;20091;-91
2023/03/27 03:55:38;;;;;;;5.97;1.00;;;3.30;99.90;;;;;;6276439;22;20456;-89
2023/03/27 03:58:04;;;;;;;5.95;1.05;;;3.30;99.90;;;;;;6277977;22;20087;-95
2023/03/27 04:00:33;;;;;;;8.40;1.27;;;3.20;99.90;;;;;;6250161;22;20026;-91
2023/03/27 04:02:59;;;;;;;5.85;1.10;;;3.30;99.90;;;;;;6277902;22;20012;-93
2023/03/27 04:05:25;;;;;;;6.93;1.10;;;3.20;99.90;;;;;;6250796;22;20118;-93
2023/03/27 04:07:51;;;;;;;6.20;1.10;;;3.20;99.90;;;;;;6250966;22;20051;-94
2023/03/27 04:10:17;;;;;;;5.70;1.05;;;3.20;99.90;;;;;;6252596;22;20023;-95
2023/03/27 04:12:50;;;;;;;8.80;1.35;;;3.20;99.90;;;;;;6254115;22;20038;-93
2023/03/27 04:15:16;;;;;;;4.50;1.17;;;3.20;99.90;;;;;;6251851;22;20109;-92
2023/03/27 04:17:42;;;;;;;5.13;1.05;;;3.20;99.90;;;;;;6278986;22;20432;-92
2023/03/27 04:20:08;;;;;;;6.80;1.20;;;3.20;99.90;;;;;;6252096;22;20447;-92
2023/03/27 04:22:36;;;;;;;5.88;1.30;;;3.10;99.90;;;;;;6251962;22;20058;-92
2023/03/27 04:25:07;;;;;;;8.77;1.40;;;3.10;99.90;;;;;;6252396;22;20444;-92
2023/03/27 04:27:34;;;;;;;6.53;1.20;;;3.10;99.90;;;;;;6252097;22;20008;-92
2023/03/27 04:30:01;;;;;;;7.15;1.23;;;3.10;99.90;;;;;;6251862;22;20012;-91
2023/03/27 04:32:27;;;;;;;5.88;1.33;;;3.10;99.90;;;;;;6279532;22;20040;-93
2023/03/27 04:34:53;;;;;;;8.98;1.50;;;3.10;99.90;;;;;;6251880;22;20015;-93
2023/03/27 04:37:19;;;;;;;7.40;1.30;;;3.00;99.90;;;;;;6251483;22;20046;-91
2023/03/27 04:39:45;;;;;;;12.52;1.80;;;3.10;99.90;;;;;;6252401;22;20223;-91
2023/03/27 04:42:13;;;;;;;7.50;1.63;;;3.10;99.90;;;;;;6278948;22;20343;-92
2023/03/27 04:44:39;;;;;;;6.15;1.27;;;3.00;99.90;;;;;;6271970;22;20019;-93
2023/03/27 04:47:05;;;;;;;6.68;1.27;;;3.00;99.90;;;;;;6282768;22;20011;-93
2023/03/27 04:49:41;;;;;;;4.22;1.15;;;3.10;99.90;;;;;;6282154;22;20452;-92
2023/03/27 04:52:07;;;;;;;6.13;1.20;;;3.00;99.90;;;;;;6282323;22;20011;-90
2023/03/27 04:54:33;;;;;;;6.30;1.30;;;3.00;99.90;;;;;;6282649;22;20042;-92
2023/03/27 04:57:00;;;;;;;7.45;1.48;;;3.00;99.90;;;;;;6310260;22;20463;-93
2023/03/27 04:59:30;;;;;;;7.50;1.38;;;3.00;99.90;;;;;;6282195;22;20090;-91
2023/03/27 05:01:57;;;;;;;6.68;1.13;;;3.10;99.90;;;;;;6310222;22;20069;-91
2023/03/27 05:04:26;;;;;;;7.18;1.48;;;3.00;99.90;;;;;;6282152;22;20094;-91
2023/03/27 05:06:56;;;;;;;5.03;1.33;;;3.10;99.90;;;;;;6282092;22;20011;-91
2023/03/27 05:09:22;;;;;;;5.30;1.45;;;3.10;99.90;;;;;;6281983;22;20447;-91
2023/03/27 05:11:49;;;;;;;8.48;1.40;;;3.10;99.90;;;;;;6309538;22;20443;-90
2023/03/27 05:14:19;;;;;;;4.90;1.20;;;3.00;99.90;;;;;;6309556;22;20016;-92
2023/03/27 05:16:45;;;;;;;7.18;1.38;;;3.10;99.90;;;;;;6282695;22;20007;-91
2023/03/27 05:19:11;;;;;;;4.90;1.30;;;3.00;99.90;;;;;;6282339;22;20023;-91
2023/03/27 05:21:40;;;;;;;6.65;1.27;;;3.00;99.90;;;;;;6282144;22;20011;-92
2023/03/27 05:24:06;;;;;;;9.10;1.27;;;3.00;99.90;;;;;;6282019;22;20023;-91
2023/03/27 05:26:32;;;;;;;5.53;1.30;;;3.00;99.90;;;;;;6281865;22;20058;-92
2023/03/27 05:28:59;;;;;;;8.15;1.30;;;3.10;99.90;;;;;;6283031;22;20472;-90
2023/03/27 05:31:26;;;;;;;4.95;1.13;;;3.00;99.90;;;;;;6282330;22;20017;-91
2023/03/27 05:33:53;;;;;;;4.72;1.30;;;3.00;99.90;;;;;;6282157;22;20011;-92
2023/03/27 05:36:20;;;;;;;6.22;1.50;;;3.00;99.90;;;;;;6282237;22;20015;-90
2023/03/27 05:38:47;;;;;;;7.55;1.27;;;3.00;99.90;;;;;;6282201;22;20096;-91
2023/03/27 05:41:14;;;;;;;5.88;1.58;;;3.00;99.90;;;;;;6281811;22;20379;-91
2023/03/27 05:43:40;;;;;;;5.60;1.25;;;2.90;99.90;;;;;;6281895;22;20011;-91
2023/03/27 05:46:06;;;;;;;8.10;1.42;;;2.90;99.90;;;;;;6282361;22;20023;-93
2023/03/27 05:48:32;;;;;;;4.55;1.30;;;2.90;99.90;;;;;;6282164;22;20440;-91
2023/03/27 05:50:58;;;;;;;5.50;1.30;;;3.00;99.90;;;;;;6282604;22;20050;-93
2023/03/27 05:53:23;;;;;;;4.50;1.30;;;2.90;99.90;;;;;;6282363;22;20061;-91
2023/03/27 05:55:49;;;;;;;8.13;1.90;;;2.90;99.90;;;;;;6282367;22;20019;-92
2023/03/27 05:58:15;;;;;;;6.72;1.40;;;3.00;99.90;;;;;;6309680;22;20015;-92
2023/03/27 06:00:41;;;;;;;6.95;1.50;;;2.90;99.90;;;;;;6282088;22;20022;-92
2023/03/27 06:03:09;;;;;;;7.30;1.60;;;2.90;99.90;;;;;;6282319;22;20016;-93
2023/03/27 06:05:39;;;;;;;9.48;1.60;;;2.90;99.90;;;;;;6282221;22;20103;-92
2023/03/27 06:08:07;;;;;;;6.28;1.20;;;2.90;99.90;;;;;;6282256;22;20011;-90
2023/03/27 06:10:33;;;;;;;8.18;1.60;;;2.90;99.90;;;;;;6309510;22;20022;-92
2023/03/27 06:13:00;;;;;;;6.75;1.20;;;2.90;99.90;;;;;;6282010;22;20025;-93
2023/03/27 06:15:26;;;;;;;6.40;1.23;;;2.90;99.90;;;;;;6281273;22;20020;-93
2023/03/27 06:17:52;;;;;;;5.15;1.10;;;2.90;99.90;;;;;;6310078;22;20013;-93
2023/03/27 06:20:20;;;;;;;7.45;1.25;;;2.80;99.90;;;;;;6282284;22;20446;-93
2023/03/27 06:22:54;;;;;;;9.07;1.48;;;2.90;99.90;;;;;;6282947;22;20481;-94
2023/03/27 06:25:21;;;;;;;5.93;0.82;;;2.90;99.90;;;;;;6310113;22;20064;-94
2023/03/27 06:27:48;;;;;;;5.65;1.20;;;2.80;99.90;;;;;;6282683;22;20011;-93
2023/03/27 06:30:16;;;;;;;5.30;1.40;;;2.90;99.90;;;;;;6309837;22;20321;-94
2023/03/27 06:32:48;;;;;;;6.88;1.20;;;2.90;99.90;;;;;;6281602;22;20332;-93
2023/03/27 06:35:14;;;;;;;7.80;1.08;;;2.90;99.90;;;;;;6309565;22;20049;-94
2023/03/27 06:37:45;;;;;;;4.85;0.85;;;2.90;99.90;;;;;;6309665;22;20059;-92
2023/03/27 06:40:23;;;;;;;5.40;1.02;;;2.90;99.90;;;;;;6282411;22;20015;-93
2023/03/27 06:42:52;;;;;;;5.00;1.00;;;2.90;99.90;;;;;;6282091;22;20046;-94
2023/03/27 06:45:19;;;;;;;5.10;1.00;;;2.90;99.90;;;;;;6281544;22;20411;-93
2023/03/27 06:47:53;;;;;;;6.90;1.13;;;2.90;99.90;;;;;;6309544;22;20436;-93
2023/03/27 06:50:20;;;;;;;7.40;1.05;;;3.00;99.90;;;;;;6282371;22;20033;-95
2023/03/27 06:52:49;;;;;;;3.83;0.98;;;3.00;99.90;;;;;;6282361;22;20023;-93
2023/03/27 06:55:17;;;;;;;5.57;0.98;;;3.10;99.90;;;;;;6309265;22;20456;-93
2023/03/27 06:57:44;;;;;;;4.32;0.90;;;3.00;99.90;;;;;;6310073;22;20039;-93
2023/03/27 07:00:13;;;;;;;5.40;1.00;;;3.10;99.90;;;;;;6282984;22;20011;-94
2023/03/27 07:02:39;;;;;;;3.70;1.00;;;3.10;99.90;;;;;;6282868;22;20015;-95
2023/03/27 07:05:07;;;;;;;4.90;0.95;;;3.10;99.90;;;;;;6310007;22;20088;-94
2023/03/27 07:07:33;;;;;;;7.03;0.90;;;3.10;99.90;;;;;;6309910;22;20015;-94
2023/03/27 07:09:59;;;;;;;7.93;1.27;;;3.20;99.90;;;;;;6282176;22;20014;-93
2023/03/27 07:12:25;;;;;;;5.95;1.17;;;3.20;99.90;;;;;;6281212;22;20106;-92
2023/03/27 07:14:51;;;;;;;8.73;1.63;;;3.20;99.90;;;;;;6282030;22;20455;-93
2023/03/27 07:17:17;;;;;;;6.38;1.15;;;3.20;99.90;;;;;;6282288;22;20015;-94
2023/03/27 07:19:43;;;;;;;11.27;1.63;;;3.30;99.90;;;;;;6310531;22;20066;-93
2023/03/27 07:22:08;;;;;;;8.73;1.13;;;3.40;99.90;;;;;;6282324;22;20400;-94
2023/03/27 07:24:34;;;;;;;7.85;1.00;;;3.40;99.90;;;;;;6309589;22;20085;-93
2023/03/27 07:27:00;;;;;;;8.57;1.20;;;3.50;99.90;;;;;;6309075;22;20030;-93
2023/03/27 07:29:26;;;;;;;8.27;1.45;;;3.50;99.90;;;;;;6310505;22;20011;-92
2023/03/27 07:31:51;;;;;;;10.23;1.50;;;3.60;99.90;;;;;;6309560;22;20011;-93
2023/03/27 07:34:17;;;;;;;7.88;1.30;;;3.70;99.90;;;;;;6281823;22;20015;-93
2023/03/27 07:36:43;;;;;;;7.10;1.30;;;3.80;99.90;;;;;;6309401;22;20008;-93
2023/03/27 07:39:11;;;;;;;10.25;1.70;;;3.80;99.90;;;;;;6309073;22;20041;-94
2023/03/27 07:41:37;;;;;;;8.57;1.48;;;3.90;99.90;;;;;;6281683;22;20344;-91
2023/03/27 07:44:02;;;;;;;7.43;1.20;;;4.00;99.90;;;;;;6280095;22;20027;-91
2023/03/27 07:46:28;;;;;;;9.15;1.08;;;4.10;99.90;;;;;;6307698;22;20444;-91
2023/03/27 07:48:55;;;;;;;13.38;1.73;;;4.20;99.90;;;;;;6280534;22;20018;-91
2023/03/27 07:51:22;;;;;;;9.95;1.60;;;4.30;99.90;;;;;;6308199;22;20027;-92
2023/03/27 07:53:52;;;;;;;9.57;1.35;;;4.40;99.90;;;;;;6280584;22;20011;-91
2023/03/27 07:56:19;;;;;;;13.27;1.88;;;4.50;99.90;;;;;;6281123;22;20016;-95
2023/03/27 07:58:45;;;;;;;9.43;1.67;;;4.70;99.90;;;;;;6308712;22;20038;-92
2023/03/27 08:01:12;;;;;;;5.85;1.00;;;4.80;99.90;;;;;;6285034;22;20052;-92
2023/03/27 08:03:40;;;;;;;7.60;1.30;;;4.90;99.90;;;;;;6288847;22;20021;-95
2023/03/27 08:06:06;;;;;;;5.40;1.00;;;4.80;99.90;;;;;;6310760;22;20054;-96
2023/03/27 08:08:32;;;;;;;5.18;1.10;;;4.80;99.90;;;;;;6319795;22;20015;-93
2023/03/27 08:11:01;;;;;;;9.27;1.30;;;4.70;99.90;;;;;;6309731;22;20014;-95
2023/03/27 08:13:27;;;;;;;8.55;1.40;;;4.70;99.90;;;;;;6310376;22;20018;-94
2023/03/27 08:16:13;;;;;;;5.15;1.00;;;4.70;99.90;;;;;;6281710;22;20016;-95
2023/03/27 08:18:39;;;;;;;7.47;0.90;;;4.70;99.90;;;;;;6309244;22;20344;-95
2023/03/27 08:21:07;;;;;;;6.05;0.88;;;4.60;99.90;;;;;;6309427;22;20011;-94
2023/03/27 08:23:33;;;;;;;6.65;1.20;;;4.60;99.90;;;;;;6309027;22;20022;-94
2023/03/27 08:26:00;;;;;;;5.88;1.05;;;4.60;99.90;;;;;;6309298;22;20023;-95
2023/03/27 08:28:30;;;;;;;6.00;1.00;;;4.50;99.90;;;;;;6308757;22;20008;-94
2023/03/27 08:30:57;;;;;;;9.35;1.02;;;4.60;99.90;;;;;;6308974;22;20022;-95
2023/03/27 08:33:26;;;;;;;7.90;1.50;;;4.60;99.90;;;;;;6281874;22;20015;-93
2023/03/27 08:52:36;;;;;;;;;;;;;;;;;;;;;
2023/03/27 08:55:19;;;;;;;5.55;1.08;;;5.00;99.90;;;;;;6252390;22;20493;-90
2023/03/27 08:58:14;;;;;;;7.85;1.50;;;5.20;99.90;;;;;;6250585;22;20464;-96
2023/03/27 09:07:08;;;;;;;4.22;1.05;;;5.50;99.90;;;;;;6283805;22;20024;-96
2023/03/27 09:09:59;;;;;;;4.93;1.10;;;5.60;99.90;;;;;;6289538;22;20023;-94
2023/03/27 09:15:57;;;;;;;5.28;1.50;;;5.60;99.90;;;;;;6263206;23;20027;-96
2023/03/27 09:18:32;;;;;;;5.13;0.80;;;5.70;99.90;;;;;;6261627;23;20024;-96
2023/03/27 09:21:16;;;;;;;5.85;1.10;;;5.70;99.90;;;;;;6259610;22;20027;-96
2023/03/27 09:29:39;;;;;;;3.63;1.00;;;5.80;99.90;;;;;;6284560;22;20024;-93
2023/03/27 09:32:13;;;;;;;4.20;0.93;;;5.80;99.90;;;;;;6278279;22;20324;-93
2023/03/27 09:34:40;;;;;;;5.40;1.25;;;5.90;99.90;;;;;;6250482;22;20440;-93
2023/03/27 09:37:11;;;;;;;6.30;1.30;;;6.00;99.90;;;;;;6250552;22;20019;-92
2023/03/27 09:39:41;;;;;;;5.22;0.90;;;6.00;99.90;;;;;;6278118;22;20022;-92
2023/03/27 09:42:38;;;;;;;6.47;1.00;;;6.10;99.90;;;;;;6251622;22;20419;-92
2023/03/27 09:45:08;;;;;;;5.78;0.85;;;6.20;99.90;;;;;;6275246;22;20898;-92
2023/03/27 09:47:45;;;;;;;7.82;1.15;;;6.20;99.90;;;;;;6277339;22;20098;-93
2023/03/27 09:50:31;;;;;;;7.70;1.25;;;6.30;99.90;;;;;;6277258;22;20030;-91
2023/03/27 09:53:26;;;;;;;9.10;1.33;;;6.40;99.90;;;;;;6250439;22;20019;-92
2023/03/27 09:56:03;;;;;;;6.22;1.20;;;6.50;99.90;;;;;;6220299;22;20554;-91
2023/03/27 09:58:39;;;;;;;7.32;1.45;;;6.50;99.90;;;;;;6277690;22;20101;-92
2023/03/27 10:01:18;;;;;;;5.43;1.08;;;6.60;99.90;;;;;;6249957;22;20012;-92
2023/03/27 10:03:55;;;;;;;9.00;1.15;;;6.70;99.90;;;;;;6252395;22;20470;-95
2023/03/27 10:06:30;;;;;;;8.13;1.10;;;6.80;99.90;;;;;;6279238;22;20049;-92
2023/03/27 10:08:59;;;;;;;10.10;1.50;;;6.80;99.90;;;;;;6252459;22;20012;-92
2023/03/27 10:11:33;;;;;;;9.00;1.20;;;6.90;99.90;;;;;;6250465;22;20016;-93
2023/03/27 10:14:15;;;;;;;6.97;1.30;;;6.90;99.90;;;;;;6278574;22;20018;-92
2023/03/27 10:16:41;;;;;;;11.85;1.38;;;7.00;99.90;;;;;;6282857;22;20031;-93
2023/03/27 10:19:41;;;;;;;7.93;1.10;;;7.10;99.90;;;;;;6250097;22;20016;-92
2023/03/27 10:22:20;;;;;;;6.15;1.10;;;7.10;99.90;;;;;;6232449;22;20363;-92
2023/03/27 10:39:20;;;;;;;6.97;1.00;;;7.40;99.80;;;;;;6141749;23;20089;-95
2023/03/27 10:46:20;;;;;;;5.85;1.25;;;7.60;98.80;;;;;;6198344;22;20102;-95
2023/03/27 10:56:44;;;;;;;8.02;1.20;;;7.70;98.10;;;;;;6256277;22;20048;-93
2023/03/27 10:59:18;;;;;;;9.07;1.13;;;7.80;98.20;;;;;;6255105;22;20051;-95
2023/03/27 11:01:58;;;;;;;7.00;1.15;;;7.80;98.20;;;;;;6252702;22;20008;-95
2023/03/27 11:04:43;;;;;;;9.00;1.00;;;7.80;97.70;;;;;;6250025;22;20016;-95
2023/03/27 11:07:19;;;;;;;6.45;1.10;;;7.90;96.90;;;;;;6276367;22;20019;-94
2023/03/27 11:09:56;;;;;;;6.45;0.90;;;7.90;96.90;;;;;;6250429;22;20022;-96
2023/03/27 11:12:23;;;;;;;8.35;1.30;;;7.90;96.90;;;;;;6277408;22;20016;-90
2023/03/27 11:15:21;;;;;;;5.93;1.00;;;7.90;96.80;;;;;;6249199;22;20024;-93
2023/03/27 11:18:18;;;;;;;6.63;1.15;;;8.00;96.90;;;;;;6276236;22;20023;-92
2023/03/27 11:20:52;;;;;;;7.20;1.23;;;8.10;95.60;;;;;;6255631;22;20016;-95
2023/03/27 11:23:31;;;;;;;9.13;1.10;;;8.10;95.80;;;;;;6249514;22;20054;-93
2023/03/27 11:26:01;;;;;;;5.22;1.00;;;8.20;95.80;;;;;;6250548;22;20300;-94
2023/03/27 11:28:53;;;;;;;4.65;0.90;;;8.20;95.60;;;;;;6249218;22;20015;-93
2023/03/27 11:31:39;;;;;;;5.47;0.88;;;8.20;95.80;;;;;;6277185;22;20022;-93
2023/03/27 11:34:33;;;;;;;5.07;0.93;;;8.20;96.60;;;;;;6251049;22;20022;-92
2023/03/27 11:37:10;;;;;;;5.38;1.02;;;8.10;96.60;;;;;;6279803;22;20015;-93
2023/03/27 11:40:19;;;;;;;4.15;0.80;;;8.10;97.30;;;;;;6280143;22;20019;-95
2023/03/27 11:43:04;;;;;;;2.88;0.70;;;8.10;97.10;;;;;;6246341;23;20000;-96
2023/03/27 11:48:22;;;;;;;5.50;1.00;;;8.00;97.60;;;;;;6298172;22;20024;-96
2023/03/27 11:51:16;;;;;;;8.70;1.00;;;8.10;98.50;;;;;;6268951;22;20019;-96
2023/03/27 11:54:08;;;;;;;6.55;1.00;;;8.20;98.80;;;;;;6270822;22;20090;-96
2023/03/27 11:57:13;;;;;;;6.43;1.08;;;8.30;98.10;;;;;;6286866;22;20046;-95
2023/03/27 12:09:41;;;;;;;7.45;1.08;;;8.40;97.70;;;;;;6268218;22;20027;-92
2023/03/27 12:12:27;;;;;;;6.40;1.20;;;8.40;97.90;;;;;;6281441;22;20026;-92
2023/03/27 12:15:34;;;;;;;4.95;0.90;;;8.40;98.30;;;;;;6281002;22;20027;-91
2023/03/27 12:18:12;;;;;;;8.05;1.30;;;8.40;98.20;;;;;;6281884;22;20055;-92
2023/03/27 12:21:12;;;;;;;6.82;1.02;;;8.40;98.50;;;;;;6280813;22;20073;-91
2023/03/27 12:24:09;;;;;;;6.18;1.42;;;8.40;97.90;;;;;;6309186;22;20392;-93
2023/03/27 12:27:01;;;;;;;7.00;1.10;;;8.50;98.30;;;;;;6282553;22;20108;-96
2023/03/27 12:29:44;;;;;;;10.07;2.45;;;8.50;98.50;;;;;;6310549;22;20011;-96
2023/03/27 12:32:44;;;;;;;8.60;1.70;;;8.50;97.50;;;;;;6311074;22;20070;-95
2023/03/27 12:35:21;;;;;;;13.02;1.48;;;8.40;97.70;;;;;;6311384;22;20023;-95
2023/03/27 12:37:54;;;;;;;6.97;1.02;;;8.40;96.90;;;;;;6284060;22;20019;-93
2023/03/27 12:40:27;;;;;;;6.65;1.35;;;8.50;96.60;;;;;;6284511;22;20074;-96
2023/03/27 12:43:09;;;;;;;6.68;1.20;;;8.50;96.50;;;;;;6283932;22;20008;-95
2023/03/27 12:45:36;;;;;;;7.20;0.98;;;8.50;95.80;;;;;;6283967;22;20015;-91
2023/03/27 12:48:08;;;;;;;6.80;1.33;;;8.50;95.70;;;;;;6310458;22;20015;-93
2023/03/27 12:50:56;;;;;;;7.40;1.20;;;8.60;95.40;;;;;;6281224;22;20015;-90
2023/03/27 12:53:27;;;;;;;6.38;1.45;;;8.60;94.80;;;;;;6281630;22;20015;-90
2023/03/27 12:56:32;;;;;;;7.97;1.20;;;8.60;95.20;;;;;;6310462;22;20039;-91
2023/03/27 12:58:58;;;;;;;6.20;0.98;;;8.70;94.40;;;;;;6222248;22;20015;-92
2023/03/27 13:01:24;;;;;;;8.35;1.38;;;8.70;95.20;;;;;;6281986;22;20027;-90
2023/03/27 13:03:55;;;;;;;8.10;1.20;;;8.80;94.90;;;;;;6309255;22;20086;-91
2023/03/27 13:06:21;;;;;;;8.90;1.73;;;8.80;94.90;;;;;;6280746;22;20023;-93
2023/03/27 13:09:30;;;;;;;8.20;1.67;;;8.90;94.50;;;;;;6282179;22;20023;-91
2023/03/27 13:12:20;;;;;;;10.82;2.15;;;8.90;93.60;;;;;;6281455;22;20439;-93
2023/03/27 13:15:05;;;;;;;10.00;1.90;;;8.90;94.70;;;;;;6220211;22;20024;-91
2023/03/27 13:17:55;;;;;;;10.30;1.95;;;8.80;94.60;;;;;;6280919;22;20444;-91
2023/03/27 13:20:40;;;;;;;10.63;1.83;;;8.70;94.80;;;;;;6280968;22;20060;-89
2023/03/27 13:23:12;;;;;;;9.32;1.55;;;8.70;95.10;;;;;;6281446;22;20015;-91
2023/03/27 13:25:50;;;;;;;7.38;1.48;;;8.70;95.00;;;;;;6308886;22;20343;-91
2023/03/27 13:28:52;;;;;;;10.07;1.63;;;8.60;94.70;;;;;;6281618;22;20454;-91
2023/03/27 13:31:43;;;;;;;9.18;1.70;;;8.50;94.40;;;;;;6159715;23;20469;-90
2023/03/27 13:34:33;;;;;;;9.00;1.33;;;8.50;94.80;;;;;;6305667;22;20094;-87
2023/03/27 13:37:08;;;;;;;8.43;1.23;;;8.50;94.50;;;;;;6291672;22;20014;-88
2023/03/27 13:40:15;;;;;;;11.43;1.40;;;8.60;94.70;;;;;;6281820;22;20023;-89
2023/03/27 13:42:43;;;;;;;8.30;1.50;;;8.60;94.00;;;;;;6282072;22;20326;-90
2023/03/27 13:45:35;;;;;;;9.30;1.75;;;8.60;94.60;;;;;;6309294;22;20019;-91
2023/03/27 13:48:11;;;;;;;8.93;1.65;;;8.60;95.00;;;;;;6282168;22;20047;-90
2023/03/27 13:51:00;;;;;;;5.68;1.40;;;8.70;95.00;;;;;;6280989;22;20015;-90
2023/03/27 13:53:42;;;;;;;10.43;1.70;;;8.70;94.30;;;;;;6281009;22;20011;-90
2023/03/27 13:57:02;;;;;;;10.70;1.38;;;8.70;93.90;;;;;;6281415;22;20015;-90
2023/03/27 13:59:49;;;;;;;9.70;1.50;;;8.70;94.20;;;;;;6158531;23;20445;-89
2023/03/27 14:02:30;;;;;;;12.63;1.55;;;8.70;93.90;;;;;;6301125;22;20443;-90
2023/03/27 14:05:17;;;;;;;9.30;1.48;;;8.70;94.20;;;;;;6281005;22;20019;-91
2023/03/27 14:08:13;;;;;;;5.95;0.90;;;8.70;94.30;;;;;;6309104;22;20015;-89
2023/03/27 14:11:01;;;;;;;7.70;1.13;;;8.80;93.60;;;;;;6281136;22;20141;-88
2023/03/27 14:13:45;;;;;;;7.20;1.33;;;8.80;93.00;;;;;;6280389;22;20015;-89
2023/03/27 14:16:33;;;;;;;6.45;1.02;;;8.80;93.50;;;;;;6280293;22;20018;-88
2023/03/27 14:19:16;;;;;;;7.35;1.30;;;8.80;92.80;;;;;;6279625;22;20017;-88
2023/03/27 14:21:54;;;;;;;;;;;8.80;94.10;;;;;;6281073;22;20447;-88
2023/03/27 14:24:38;;;;;;;7.95;1.38;;;8.70;92.20;;;;;;6280169;22;19919;-88
2023/03/27 14:27:06;;;;;;;;;;;8.80;94.40;;;;;;6309354;22;20026;-87
2023/03/27 14:29:33;;;;;;;5.55;0.95;;;8.70;92.90;;;;;;6306683;22;19910;-89
2023/03/27 14:32:11;;;;;;;6.85;1.40;;;8.80;95.00;;;;;;6279369;22;20043;-88
2023/03/27 14:34:45;;;;;;;8.30;1.25;;;8.90;95.50;;;;;;6278788;22;20015;-89
2023/03/27 14:37:27;;;;;;;6.97;1.27;;;8.90;94.90;;;;;;6279156;22;20017;-88
2023/03/27 14:39:55;;;;;;;8.15;1.40;;;8.90;95.20;;;;;;6277228;22;20355;-91
2023/03/27 14:42:26;;;;;;;12.23;1.23;;;8.90;94.60;;;;;;6278192;22;20039;-91
2023/03/27 14:45:16;;;;;;;9.20;1.25;;;8.90;94.90;;;;;;6307245;22;20015;-90